sensor_id;sensor_type;location;lat;lon;timestamp;pressure;altitude;pressure_sealevel;temperature;humidity
36254;BME280;22291;52.250;21.228;2022-08-03T00:00:55;100543.66;;;17.90;72.27
36254;BME280;22291;52.250;21.228;2022-08-03T00:03:21;100540.13;;;17.83;72.19
36254;BME280;22291;52.250;21.228;2022-08-03T00:05:47;100550.06;;;17.82;72.57
36254;BME280;22291;52.250;21.228;2022-08-03T00:08:13;100545.43;;;17.76;72.43
36254;BME280;22291;52.250;21.228;2022-08-03T00:10:40;100545.11;;;17.71;72.71
36254;BME280;22291;52.250;21.228;2022-08-03T00:13:06;100547.75;;;17.68;72.72
36254;BME280;22291;52.250;21.228;2022-08-03T00:15:33;100552.31;;;17.64;72.67
36254;BME280;22291;52.250;21.228;2022-08-03T00:17:59;100549.28;;;17.59;72.99
36254;BME280;22291;52.250;21.228;2022-08-03T00:20:25;100551.45;;;17.53;73.06
36254;BME280;22291;52.250;21.228;2022-08-03T00:22:51;100554.80;;;17.47;73.23
36254;BME280;22291;52.250;21.228;2022-08-03T00:25:19;100553.47;;;17.41;73.37
36254;BME280;22291;52.250;21.228;2022-08-03T00:27:47;100559.98;;;17.36;73.73
36254;BME280;22291;52.250;21.228;2022-08-03T00:30:13;100556.91;;;17.31;73.73
36254;BME280;22291;52.250;21.228;2022-08-03T00:32:40;100550.66;;;17.31;73.89
36254;BME280;22291;52.250;21.228;2022-08-03T00:35:06;100551.82;;;17.30;74.26
36254;BME280;22291;52.250;21.228;2022-08-03T00:37:33;100553.53;;;17.28;73.98
36254;BME280;22291;52.250;21.228;2022-08-03T00:40:00;100551.34;;;17.28;74.24
36254;BME280;22291;52.250;21.228;2022-08-03T00:42:26;100550.13;;;17.25;74.34
36254;BME280;22291;52.250;21.228;2022-08-03T00:44:52;100548.87;;;17.23;74.54
36254;BME280;22291;52.250;21.228;2022-08-03T00:47:18;100555.26;;;17.21;74.76
36254;BME280;22291;52.250;21.228;2022-08-03T00:49:45;100552.53;;;17.14;74.66
36254;BME280;22291;52.250;21.228;2022-08-03T00:52:12;100550.86;;;17.10;74.61
36254;BME280;22291;52.250;21.228;2022-08-03T00:54:41;100552.13;;;17.06;74.65
36254;BME280;22291;52.250;21.228;2022-08-03T00:59:36;100554.19;;;17.03;74.90
36254;BME280;22291;52.250;21.228;2022-08-03T01:02:04;100549.06;;;17.02;74.83
36254;BME280;22291;52.250;21.228;2022-08-03T01:04:31;100556.00;;;16.99;74.60
36254;BME280;22291;52.250;21.228;2022-08-03T01:07:01;100551.45;;;16.97;74.75
36254;BME280;22291;52.250;21.228;2022-08-03T01:09:43;100552.14;;;16.94;74.60
36254;BME280;22291;52.250;21.228;2022-08-03T01:12:27;100555.01;;;16.91;74.69
36254;BME280;22291;52.250;21.228;2022-08-03T01:15:09;100554.56;;;16.89;74.78
36254;BME280;22291;52.250;21.228;2022-08-03T01:20:26;100561.71;;;16.81;74.92
36254;BME280;22291;52.250;21.228;2022-08-03T01:26:23;100557.85;;;16.76;75.44
36254;BME280;22291;52.250;21.228;2022-08-03T01:31:51;100556.96;;;16.72;75.48
36254;BME280;22291;52.250;21.228;2022-08-03T01:34:16;100555.36;;;16.71;75.74
36254;BME280;22291;52.250;21.228;2022-08-03T01:36:51;100555.15;;;16.70;75.91
36254;BME280;22291;52.250;21.228;2022-08-03T01:39:18;100554.33;;;16.70;75.87
36254;BME280;22291;52.250;21.228;2022-08-03T01:41:49;100553.55;;;16.69;75.91
36254;BME280;22291;52.250;21.228;2022-08-03T01:44:17;100551.39;;;16.69;76.09
36254;BME280;22291;52.250;21.228;2022-08-03T01:46:46;100545.93;;;16.69;75.94
36254;BME280;22291;52.250;21.228;2022-08-03T01:49:15;100551.16;;;16.68;76.34
36254;BME280;22291;52.250;21.228;2022-08-03T01:51:44;100546.27;;;16.67;76.29
36254;BME280;22291;52.250;21.228;2022-08-03T01:54:13;100545.59;;;16.64;76.38
36254;BME280;22291;52.250;21.228;2022-08-03T01:56:41;100544.56;;;16.62;76.52
36254;BME280;22291;52.250;21.228;2022-08-03T01:59:10;100542.17;;;16.61;76.45
36254;BME280;22291;52.250;21.228;2022-08-03T02:01:37;100540.02;;;16.60;76.55
36254;BME280;22291;52.250;21.228;2022-08-03T02:04:06;100536.27;;;16.59;76.64
36254;BME280;22291;52.250;21.228;2022-08-03T02:06:35;100536.84;;;16.58;76.58
36254;BME280;22291;52.250;21.228;2022-08-03T02:09:04;100538.21;;;16.58;76.95
36254;BME280;22291;52.250;21.228;2022-08-03T02:11:32;100543.67;;;16.58;77.11
36254;BME280;22291;52.250;21.228;2022-08-03T02:14:03;100535.23;;;16.57;77.13
36254;BME280;22291;52.250;21.228;2022-08-03T02:16:32;100537.97;;;16.57;77.23
36254;BME280;22291;52.250;21.228;2022-08-03T02:19:00;100535.58;;;16.56;77.01
36254;BME280;22291;52.250;21.228;2022-08-03T02:21:31;100539.44;;;16.55;76.92
36254;BME280;22291;52.250;21.228;2022-08-03T02:24:01;100537.28;;;16.54;76.76
36254;BME280;22291;52.250;21.228;2022-08-03T02:26:29;100533.53;;;16.53;76.86
36254;BME280;22291;52.250;21.228;2022-08-03T02:29:01;100535.48;;;16.52;76.83
36254;BME280;22291;52.250;21.228;2022-08-03T02:31:30;100529.78;;;16.51;76.84
36254;BME280;22291;52.250;21.228;2022-08-03T02:34:01;100527.39;;;16.50;77.23
36254;BME280;22291;52.250;21.228;2022-08-03T02:36:31;100530.25;;;16.47;77.18
36254;BME280;22291;52.250;21.228;2022-08-03T02:39:00;100528.98;;;16.44;76.93
36254;BME280;22291;52.250;21.228;2022-08-03T02:41:31;100533.66;;;16.44;77.11
36254;BME280;22291;52.250;21.228;2022-08-03T02:44:03;100530.24;;;16.41;76.90
36254;BME280;22291;52.250;21.228;2022-08-03T02:46:33;100527.06;;;16.39;76.90
36254;BME280;22291;52.250;21.228;2022-08-03T02:49:03;100532.66;;;16.36;76.93
36254;BME280;22291;52.250;21.228;2022-08-03T02:51:32;100542.65;;;16.32;76.97
36254;BME280;22291;52.250;21.228;2022-08-03T02:54:02;100544.93;;;16.30;77.09
36254;BME280;22291;52.250;21.228;2022-08-03T02:56:29;100549.94;;;16.28;77.00
36254;BME280;22291;52.250;21.228;2022-08-03T02:58:57;100541.41;;;16.23;77.13
36254;BME280;22291;52.250;21.228;2022-08-03T03:01:26;100539.94;;;16.26;77.36
36254;BME280;22291;52.250;21.228;2022-08-03T03:03:55;100538.91;;;16.24;77.42
36254;BME280;22291;52.250;21.228;2022-08-03T03:06:24;100543.89;;;16.22;77.56
36254;BME280;22291;52.250;21.228;2022-08-03T03:08:51;100544.47;;;16.22;77.85
36254;BME280;22291;52.250;21.228;2022-08-03T03:11:21;100543.44;;;16.20;77.90
36254;BME280;22291;52.250;21.228;2022-08-03T03:13:48;100550.27;;;16.20;78.14
36254;BME280;22291;52.250;21.228;2022-08-03T03:16:17;100548.11;;;16.20;78.21
36254;BME280;22291;52.250;21.228;2022-08-03T03:18:45;100546.75;;;16.20;78.18
36254;BME280;22291;52.250;21.228;2022-08-03T03:21:15;100549.14;;;16.21;78.37
36254;BME280;22291;52.250;21.228;2022-08-03T03:23:44;100553.81;;;16.21;78.58
36254;BME280;22291;52.250;21.228;2022-08-03T03:26:13;100559.37;;;16.24;78.73
36254;BME280;22291;52.250;21.228;2022-08-03T03:28:40;100562.22;;;16.28;78.90
36254;BME280;22291;52.250;21.228;2022-08-03T03:31:07;100564.61;;;16.30;79.03
36254;BME280;22291;52.250;21.228;2022-08-03T03:33:35;100564.14;;;16.34;79.14
36254;BME280;22291;52.250;21.228;2022-08-03T03:36:04;100561.19;;;16.39;79.17
36254;BME280;22291;52.250;21.228;2022-08-03T03:38:31;100565.39;;;16.42;79.38
36254;BME280;22291;52.250;21.228;2022-08-03T03:40:58;100566.66;;;16.45;79.42
36254;BME280;22291;52.250;21.228;2022-08-03T03:43:25;100561.52;;;16.50;79.64
36254;BME280;22291;52.250;21.228;2022-08-03T03:45:53;100562.89;;;16.56;79.86
36254;BME280;22291;52.250;21.228;2022-08-03T03:48:20;100557.98;;;16.61;79.87
36254;BME280;22291;52.250;21.228;2022-08-03T03:50:48;100564.02;;;16.67;79.87
36254;BME280;22291;52.250;21.228;2022-08-03T03:53:14;100566.07;;;16.70;79.71
36254;BME280;22291;52.250;21.228;2022-08-03T03:55:41;100566.39;;;16.75;79.65
36254;BME280;22291;52.250;21.228;2022-08-03T03:58:08;100569.02;;;16.77;79.70
36254;BME280;22291;52.250;21.228;2022-08-03T04:00:34;100566.59;;;16.82;79.74
36254;BME280;22291;52.250;21.228;2022-08-03T04:03:00;100569.70;;;16.87;80.00
36254;BME280;22291;52.250;21.228;2022-08-03T04:05:27;100573.80;;;16.93;80.25
36254;BME280;22291;52.250;21.228;2022-08-03T04:08:13;100580.59;;;16.99;80.47
36254;BME280;22291;52.250;21.228;2022-08-03T04:11:18;100572.73;;;17.04;80.60
36254;BME280;22291;52.250;21.228;2022-08-03T04:13:49;100582.16;;;17.12;80.73
36254;BME280;22291;52.250;21.228;2022-08-03T04:16:34;100581.36;;;17.18;80.96
36254;BME280;22291;52.250;21.228;2022-08-03T04:19:05;100585.08;;;17.26;80.74
36254;BME280;22291;52.250;21.228;2022-08-03T04:21:39;100585.27;;;17.33;80.65
36254;BME280;22291;52.250;21.228;2022-08-03T04:24:08;100588.58;;;17.39;80.88
36254;BME280;22291;52.250;21.228;2022-08-03T04:26:38;100590.92;;;17.46;80.94
36254;BME280;22291;52.250;21.228;2022-08-03T04:29:06;100591.69;;;17.53;80.91
36254;BME280;22291;52.250;21.228;2022-08-03T04:31:35;100595.20;;;17.60;81.02
36254;BME280;22291;52.250;21.228;2022-08-03T04:34:03;100595.97;;;17.66;80.95
36254;BME280;22291;52.250;21.228;2022-08-03T04:36:32;100595.13;;;17.72;80.85
36254;BME280;22291;52.250;21.228;2022-08-03T04:39:07;100597.16;;;17.81;80.93
36254;BME280;22291;52.250;21.228;2022-08-03T04:41:42;100606.36;;;17.89;81.12
36254;BME280;22291;52.250;21.228;2022-08-03T04:44:10;100601.73;;;17.99;81.41
36254;BME280;22291;52.250;21.228;2022-08-03T04:46:38;100601.01;;;18.08;81.41
36254;BME280;22291;52.250;21.228;2022-08-03T04:49:06;100609.13;;;18.21;81.55
36254;BME280;22291;52.250;21.228;2022-08-03T04:51:33;100608.25;;;18.33;82.03
36254;BME280;22291;52.250;21.228;2022-08-03T04:54:01;100609.52;;;18.45;81.76
36254;BME280;22291;52.250;21.228;2022-08-03T04:56:28;100608.50;;;18.59;81.48
36254;BME280;22291;52.250;21.228;2022-08-03T04:58:54;100606.59;;;18.70;81.22
36254;BME280;22291;52.250;21.228;2022-08-03T05:01:20;100607.76;;;18.78;80.79
36254;BME280;22291;52.250;21.228;2022-08-03T05:03:47;100608.25;;;18.90;81.12
36254;BME280;22291;52.250;21.228;2022-08-03T05:06:13;100606.16;;;19.03;80.85
36254;BME280;22291;52.250;21.228;2022-08-03T05:08:39;100612.96;;;19.09;79.89
36254;BME280;22291;52.250;21.228;2022-08-03T05:11:05;100608.63;;;19.18;79.79
36254;BME280;22291;52.250;21.228;2022-08-03T05:13:31;100606.98;;;19.23;79.16
36254;BME280;22291;52.250;21.228;2022-08-03T05:15:57;100610.09;;;19.31;79.01
36254;BME280;22291;52.250;21.228;2022-08-03T05:18:23;100609.94;;;19.44;79.07
36254;BME280;22291;52.250;21.228;2022-08-03T05:20:50;100613.11;;;19.55;78.66
36254;BME280;22291;52.250;21.228;2022-08-03T05:23:16;100619.80;;;19.68;78.19
36254;BME280;22291;52.250;21.228;2022-08-03T05:25:42;100618.03;;;19.75;77.61
36254;BME280;22291;52.250;21.228;2022-08-03T05:28:10;100620.31;;;19.83;77.35
36254;BME280;22291;52.250;21.228;2022-08-03T05:30:38;100619.78;;;19.97;77.95
36254;BME280;22291;52.250;21.228;2022-08-03T05:33:04;100617.72;;;20.13;77.82
36254;BME280;22291;52.250;21.228;2022-08-03T05:35:31;100619.49;;;20.25;77.00
36254;BME280;22291;52.250;21.228;2022-08-03T05:38:01;100622.46;;;20.40;76.64
36254;BME280;22291;52.250;21.228;2022-08-03T05:40:27;100623.66;;;20.52;75.99
36254;BME280;22291;52.250;21.228;2022-08-03T05:42:53;100624.85;;;20.64;75.61
36254;BME280;22291;52.250;21.228;2022-08-03T05:45:20;100616.76;;;20.75;75.01
36254;BME280;22291;52.250;21.228;2022-08-03T05:47:46;100619.31;;;20.87;74.89
36254;BME280;22291;52.250;21.228;2022-08-03T05:50:13;100623.40;;;21.01;74.65
36254;BME280;22291;52.250;21.228;2022-08-03T05:52:40;100625.77;;;21.16;74.08
36254;BME280;22291;52.250;21.228;2022-08-03T05:55:10;100625.48;;;21.24;73.73
36254;BME280;22291;52.250;21.228;2022-08-03T05:57:38;100634.45;;;21.35;73.77
36254;BME280;22291;52.250;21.228;2022-08-03T06:00:08;100626.60;;;21.50;73.43
36254;BME280;22291;52.250;21.228;2022-08-03T06:02:36;100632.63;;;21.59;72.60
36254;BME280;22291;52.250;21.228;2022-08-03T06:05:04;100631.54;;;21.68;71.93
36254;BME280;22291;52.250;21.228;2022-08-03T06:07:32;100637.86;;;21.72;71.53
36254;BME280;22291;52.250;21.228;2022-08-03T06:09:58;100639.69;;;21.77;71.44
36254;BME280;22291;52.250;21.228;2022-08-03T06:12:27;100634.84;;;21.84;71.55
36254;BME280;22291;52.250;21.228;2022-08-03T06:14:54;100638.25;;;21.91;71.30
36254;BME280;22291;52.250;21.228;2022-08-03T06:17:20;100645.98;;;21.95;70.43
36254;BME280;22291;52.250;21.228;2022-08-03T06:19:47;100649.11;;;21.93;70.12
36254;BME280;22291;52.250;21.228;2022-08-03T06:22:13;100655.78;;;21.92;69.89
36254;BME280;22291;52.250;21.228;2022-08-03T06:24:39;100649.11;;;21.93;69.96
36254;BME280;22291;52.250;21.228;2022-08-03T06:27:05;100649.73;;;21.96;69.54
36254;BME280;22291;52.250;21.228;2022-08-03T06:29:31;100645.80;;;21.97;69.14
36254;BME280;22291;52.250;21.228;2022-08-03T06:31:58;100641.27;;;21.95;68.91
36254;BME280;22291;52.250;21.228;2022-08-03T06:34:23;100650.18;;;22.02;69.57
36254;BME280;22291;52.250;21.228;2022-08-03T06:36:50;100649.30;;;22.15;70.05
36254;BME280;22291;52.250;21.228;2022-08-03T06:39:16;100645.72;;;22.28;69.35
36254;BME280;22291;52.250;21.228;2022-08-03T06:41:43;100649.31;;;22.35;69.05
36254;BME280;22291;52.250;21.228;2022-08-03T06:44:10;100651.56;;;22.43;69.04
36254;BME280;22291;52.250;21.228;2022-08-03T06:46:37;100650.63;;;22.52;68.94
36254;BME280;22291;52.250;21.228;2022-08-03T06:49:03;100646.73;;;22.57;68.19
36254;BME280;22291;52.250;21.228;2022-08-03T06:51:29;100651.11;;;22.62;67.98
36254;BME280;22291;52.250;21.228;2022-08-03T06:53:56;100644.82;;;22.61;67.98
36254;BME280;22291;52.250;21.228;2022-08-03T06:56:22;100646.78;;;22.64;68.15
36254;BME280;22291;52.250;21.228;2022-08-03T06:58:48;100651.19;;;22.72;68.29
36254;BME280;22291;52.250;21.228;2022-08-03T07:01:14;100650.64;;;22.77;67.85
36254;BME280;22291;52.250;21.228;2022-08-03T07:03:40;100649.84;;;22.80;67.57
36254;BME280;22291;52.250;21.228;2022-08-03T07:06:07;100651.27;;;22.83;67.84
36254;BME280;22291;52.250;21.228;2022-08-03T07:08:33;100656.63;;;22.93;67.93
36254;BME280;22291;52.250;21.228;2022-08-03T07:11:00;100655.70;;;22.99;67.79
36254;BME280;22291;52.250;21.228;2022-08-03T07:13:26;100659.48;;;23.04;67.75
36254;BME280;22291;52.250;21.228;2022-08-03T07:15:52;100661.68;;;23.08;67.72
36254;BME280;22291;52.250;21.228;2022-08-03T07:18:19;100661.53;;;23.14;67.67
36254;BME280;22291;52.250;21.228;2022-08-03T07:20:45;100663.49;;;23.17;67.46
36254;BME280;22291;52.250;21.228;2022-08-03T07:23:11;100665.09;;;23.18;67.31
36254;BME280;22291;52.250;21.228;2022-08-03T07:25:37;100661.17;;;23.23;67.43
36254;BME280;22291;52.250;21.228;2022-08-03T07:28:04;100665.13;;;23.29;67.38
36254;BME280;22291;52.250;21.228;2022-08-03T07:30:30;100660.22;;;23.32;67.22
36254;BME280;22291;52.250;21.228;2022-08-03T07:32:57;100666.56;;;23.36;67.21
36254;BME280;22291;52.250;21.228;2022-08-03T07:35:23;100667.58;;;23.41;67.30
36254;BME280;22291;52.250;21.228;2022-08-03T07:37:52;100660.70;;;23.48;67.50
36254;BME280;22291;52.250;21.228;2022-08-03T07:40:18;100659.12;;;23.55;67.16
36254;BME280;22291;52.250;21.228;2022-08-03T07:42:44;100662.50;;;23.61;66.93
36254;BME280;22291;52.250;21.228;2022-08-03T07:45:11;100660.36;;;23.68;66.48
36254;BME280;22291;52.250;21.228;2022-08-03T07:47:37;100662.34;;;23.71;66.28
36254;BME280;22291;52.250;21.228;2022-08-03T07:50:05;100660.80;;;23.77;66.05
36254;BME280;22291;52.250;21.228;2022-08-03T07:52:32;100663.20;;;23.82;66.11
36254;BME280;22291;52.250;21.228;2022-08-03T07:55:18;100662.05;;;23.91;65.92
36254;BME280;22291;52.250;21.228;2022-08-03T07:57:46;100664.21;;;23.95;65.65
36254;BME280;22291;52.250;21.228;2022-08-03T08:00:16;100664.99;;;23.95;65.24
36254;BME280;22291;52.250;21.228;2022-08-03T08:02:44;100665.59;;;23.98;65.30
36254;BME280;22291;52.250;21.228;2022-08-03T08:05:11;100668.97;;;24.01;65.37
36254;BME280;22291;52.250;21.228;2022-08-03T08:07:40;100658.13;;;24.06;65.12
36254;BME280;22291;52.250;21.228;2022-08-03T08:10:08;100666.42;;;24.17;65.56
36254;BME280;22291;52.250;21.228;2022-08-03T08:12:36;100666.44;;;24.42;65.94
36254;BME280;22291;52.250;21.228;2022-08-03T08:15:04;100668.81;;;24.69;65.89
36254;BME280;22291;52.250;21.228;2022-08-03T08:17:46;100662.43;;;25.04;65.10
36254;BME280;22291;52.250;21.228;2022-08-03T08:20:19;100673.23;;;25.39;64.99
36254;BME280;22291;52.250;21.228;2022-08-03T08:22:46;100665.09;;;25.84;65.10
36254;BME280;22291;52.250;21.228;2022-08-03T08:25:13;100667.24;;;26.22;63.98
36254;BME280;22291;52.250;21.228;2022-08-03T08:27:48;100674.70;;;26.58;63.30
36254;BME280;22291;52.250;21.228;2022-08-03T08:30:17;100673.55;;;26.78;61.67
36254;BME280;22291;52.250;21.228;2022-08-03T08:32:45;100678.17;;;26.92;60.52
36254;BME280;22291;52.250;21.228;2022-08-03T08:35:12;100673.80;;;27.10;60.17
36254;BME280;22291;52.250;21.228;2022-08-03T08:37:39;100669.53;;;27.40;60.25
36254;BME280;22291;52.250;21.228;2022-08-03T08:40:07;100684.72;;;27.93;60.28
36254;BME280;22291;52.250;21.228;2022-08-03T08:42:38;100669.98;;;28.47;59.33
36254;BME280;22291;52.250;21.228;2022-08-03T08:45:07;100676.72;;;29.05;58.24
36254;BME280;22291;52.250;21.228;2022-08-03T08:47:39;100672.73;;;29.47;56.95
36254;BME280;22291;52.250;21.228;2022-08-03T08:50:08;100673.65;;;29.80;56.16
36254;BME280;22291;52.250;21.228;2022-08-03T08:52:38;100677.62;;;30.15;54.56
36254;BME280;22291;52.250;21.228;2022-08-03T08:55:07;100676.73;;;30.60;53.80
36254;BME280;22291;52.250;21.228;2022-08-03T08:57:43;100675.52;;;31.06;53.11
36254;BME280;22291;52.250;21.228;2022-08-03T09:00:11;100680.86;;;31.43;51.64
36254;BME280;22291;52.250;21.228;2022-08-03T09:02:42;100680.32;;;31.82;50.22
36254;BME280;22291;52.250;21.228;2022-08-03T09:05:11;100679.39;;;32.06;49.11
36254;BME280;22291;52.250;21.228;2022-08-03T09:07:45;100674.97;;;32.44;48.84
36254;BME280;22291;52.250;21.228;2022-08-03T09:10:15;100676.73;;;32.81;47.99
36254;BME280;22291;52.250;21.228;2022-08-03T09:12:46;100670.70;;;33.04;46.59
36254;BME280;22291;52.250;21.228;2022-08-03T09:15:28;100667.58;;;33.02;45.50
36254;BME280;22291;52.250;21.228;2022-08-03T09:17:59;100673.00;;;33.01;45.29
36254;BME280;22291;52.250;21.228;2022-08-03T09:20:29;100670.36;;;33.20;44.42
36254;BME280;22291;52.250;21.228;2022-08-03T09:22:59;100670.48;;;33.38;44.43
36254;BME280;22291;52.250;21.228;2022-08-03T09:25:30;100662.64;;;33.91;43.75
36254;BME280;22291;52.250;21.228;2022-08-03T09:28:13;100662.64;;;33.91;43.75
36254;BME280;22291;52.250;21.228;2022-08-03T09:30:42;100664.47;;;34.26;42.43
36254;BME280;22291;52.250;21.228;2022-08-03T09:33:11;100684.50;;;34.69;41.03
36254;BME280;22291;52.250;21.228;2022-08-03T09:35:45;100665.78;;;34.57;39.90
36254;BME280;22291;52.250;21.228;2022-08-03T09:38:20;100662.95;;;34.52;38.97
36254;BME280;22291;52.250;21.228;2022-08-03T09:40:52;100653.77;;;34.52;39.64
36254;BME280;22291;52.250;21.228;2022-08-03T09:43:20;100657.83;;;34.78;40.21
36254;BME280;22291;52.250;21.228;2022-08-03T09:45:46;100653.75;;;35.12;39.31
36254;BME280;22291;52.250;21.228;2022-08-03T09:48:25;100657.48;;;35.32;39.15
36254;BME280;22291;52.250;21.228;2022-08-03T09:50:57;100652.33;;;35.30;37.76
36254;BME280;22291;52.250;21.228;2022-08-03T09:53:25;100654.88;;;34.91;37.10
36254;BME280;22291;52.250;21.228;2022-08-03T09:55:54;100654.05;;;34.49;37.07
36254;BME280;22291;52.250;21.228;2022-08-03T09:58:27;100653.03;;;34.06;36.95
36254;BME280;22291;52.250;21.228;2022-08-03T10:01:04;100649.27;;;33.64;36.75
36254;BME280;22291;52.250;21.228;2022-08-03T10:03:33;100654.22;;;33.24;36.91
36254;BME280;22291;52.250;21.228;2022-08-03T10:06:15;100646.75;;;32.86;37.20
36254;BME280;22291;52.250;21.228;2022-08-03T10:09:05;100643.33;;;32.64;38.19
36254;BME280;22291;52.250;21.228;2022-08-03T10:11:33;100660.70;;;32.99;39.16
36254;BME280;22291;52.250;21.228;2022-08-03T10:14:06;100644.80;;;33.40;39.09
36254;BME280;22291;52.250;21.228;2022-08-03T10:51:45;100634.27;;;36.66;33.50
36254;BME280;22291;52.250;21.228;2022-08-03T10:54:41;100637.42;;;36.44;34.39
36254;BME280;22291;52.250;21.228;2022-08-03T11:00:22;100640.68;;;36.18;34.64
36254;BME280;22291;52.250;21.228;2022-08-03T11:03:00;100637.26;;;36.19;34.33
36254;BME280;22291;52.250;21.228;2022-08-03T11:05:37;100636.76;;;36.25;34.12
36254;BME280;22291;52.250;21.228;2022-08-03T11:08:26;100635.78;;;36.33;33.92
36254;BME280;22291;52.250;21.228;2022-08-03T11:14:04;100633.53;;;36.61;33.08
36254;BME280;22291;52.250;21.228;2022-08-03T11:16:35;100632.63;;;36.55;32.64
36254;BME280;22291;52.250;21.228;2022-08-03T11:19:08;100635.03;;;36.27;32.50
36254;BME280;22291;52.250;21.228;2022-08-03T11:29:54;100618.83;;;34.71;33.75
36254;BME280;22291;52.250;21.228;2022-08-03T11:40:45;100613.28;;;35.28;34.21
36254;BME280;22291;52.250;21.228;2022-08-03T11:46:09;100613.19;;;35.89;32.93
36254;BME280;22291;52.250;21.228;2022-08-03T11:48:41;100614.59;;;36.13;32.12
36254;BME280;22291;52.250;21.228;2022-08-03T11:51:20;100606.77;;;36.22;32.18
36254;BME280;22291;52.250;21.228;2022-08-03T11:53:55;100607.50;;;36.46;31.72
36254;BME280;22291;52.250;21.228;2022-08-03T11:56:24;100612.17;;;36.50;32.07
36254;BME280;22291;52.250;21.228;2022-08-03T11:58:52;100609.49;;;36.51;31.65
36254;BME280;22291;52.250;21.228;2022-08-03T12:01:22;100603.54;;;36.53;31.36
36254;BME280;22291;52.250;21.228;2022-08-03T12:03:50;100600.27;;;36.50;30.62
36254;BME280;22291;52.250;21.228;2022-08-03T12:06:18;100607.13;;;36.54;30.67
36254;BME280;22291;52.250;21.228;2022-08-03T12:08:45;100595.12;;;36.49;30.33
36254;BME280;22291;52.250;21.228;2022-08-03T12:11:14;100612.30;;;36.51;31.02
36254;BME280;22291;52.250;21.228;2022-08-03T12:13:43;100605.36;;;36.61;30.17
36254;BME280;22291;52.250;21.228;2022-08-03T12:16:20;100600.27;;;36.50;29.97
36254;BME280;22291;52.250;21.228;2022-08-03T12:19:03;100596.14;;;36.41;29.23
36254;BME280;22291;52.250;21.228;2022-08-03T12:21:28;100599.17;;;36.33;30.10
36254;BME280;22291;52.250;21.228;2022-08-03T12:24:01;100595.34;;;36.60;30.26
36254;BME280;22291;52.250;21.228;2022-08-03T12:26:44;100592.52;;;36.79;29.97
36254;BME280;22291;52.250;21.228;2022-08-03T12:29:18;100596.26;;;36.81;30.33
36254;BME280;22291;52.250;21.228;2022-08-03T12:31:46;100591.91;;;36.80;30.72
36254;BME280;22291;52.250;21.228;2022-08-03T12:34:13;100585.30;;;36.83;30.43
36254;BME280;22291;52.250;21.228;2022-08-03T12:36:51;100585.53;;;36.75;30.62
36254;BME280;22291;52.250;21.228;2022-08-03T12:39:24;100591.16;;;36.90;30.76
36254;BME280;22291;52.250;21.228;2022-08-03T12:41:53;100583.06;;;37.02;30.25
36254;BME280;22291;52.250;21.228;2022-08-03T12:44:31;100586.11;;;37.24;29.88
36254;BME280;22291;52.250;21.228;2022-08-03T12:47:00;100581.05;;;37.13;29.98
36254;BME280;22291;52.250;21.228;2022-08-03T12:49:47;100582.81;;;36.80;29.55
36254;BME280;22291;52.250;21.228;2022-08-03T12:52:12;100583.47;;;36.41;29.51
36254;BME280;22291;52.250;21.228;2022-08-03T12:54:39;100580.33;;;35.95;29.80
36254;BME280;22291;52.250;21.228;2022-08-03T12:57:07;100577.71;;;35.53;30.43
36254;BME280;22291;52.250;21.228;2022-08-03T12:59:41;100571.77;;;35.18;30.71
36254;BME280;22291;52.250;21.228;2022-08-03T13:04:45;100571.52;;;34.70;31.33
36254;BME280;22291;52.250;21.228;2022-08-03T13:07:13;100571.84;;;34.58;32.00
36254;BME280;22291;52.250;21.228;2022-08-03T13:09:45;100566.23;;;34.39;32.11
36254;BME280;22291;52.250;21.228;2022-08-03T13:12:18;100569.22;;;34.50;31.84
36254;BME280;22291;52.250;21.228;2022-08-03T13:14:49;100564.52;;;34.60;31.74
36254;BME280;22291;52.250;21.228;2022-08-03T13:17:17;100559.52;;;34.78;31.46
36254;BME280;22291;52.250;21.228;2022-08-03T13:19:45;100558.06;;;34.97;31.36
36254;BME280;22291;52.250;21.228;2022-08-03T13:22:25;100559.42;;;35.15;30.63
36254;BME280;22291;52.250;21.228;2022-08-03T13:24:51;100554.56;;;35.16;30.68
36254;BME280;22291;52.250;21.228;2022-08-03T13:27:20;100557.84;;;35.19;31.66
36254;BME280;22291;52.250;21.228;2022-08-03T13:29:49;100552.09;;;35.09;30.76
36254;BME280;22291;52.250;21.228;2022-08-03T13:32:15;100554.22;;;34.76;30.93
36254;BME280;22291;52.250;21.228;2022-08-03T13:34:42;100550.80;;;34.49;31.25
36254;BME280;22291;52.250;21.228;2022-08-03T13:37:08;100543.94;;;34.22;31.28
36254;BME280;22291;52.250;21.228;2022-08-03T13:39:34;100548.87;;;33.95;31.30
36254;BME280;22291;52.250;21.228;2022-08-03T13:42:01;100542.89;;;33.69;31.68
36254;BME280;22291;52.250;21.228;2022-08-03T13:44:27;100545.94;;;33.48;31.99
36254;BME280;22291;52.250;21.228;2022-08-03T13:46:53;100543.52;;;33.24;33.26
36254;BME280;22291;52.250;21.228;2022-08-03T13:49:19;100541.58;;;32.89;32.90
36254;BME280;22291;52.250;21.228;2022-08-03T13:51:46;100543.30;;;32.65;32.85
36254;BME280;22291;52.250;21.228;2022-08-03T13:54:12;100545.16;;;32.46;33.60
36254;BME280;22291;52.250;21.228;2022-08-03T13:56:38;100559.39;;;32.38;33.88
36254;BME280;22291;52.250;21.228;2022-08-03T13:59:05;100560.93;;;32.17;34.84
36254;BME280;22291;52.250;21.228;2022-08-03T14:01:31;100560.93;;;32.17;34.84
36254;BME280;22291;52.250;21.228;2022-08-03T14:03:57;100538.40;;;32.16;35.43
36254;BME280;22291;52.250;21.228;2022-08-03T14:06:24;100536.08;;;32.19;35.11